sensor_id;sensor_type;location;lat;lon;timestamp;pressure;altitude;pressure_sealevel;temperature;humidity
9695;BME280;4690;52.422;13.486;2022-11-10T00:06:10;101213.47;;;13.13;76.99
9695;BME280;4690;52.422;13.486;2022-11-10T00:08:36;101217.38;;;13.06;77.67
9695;BME280;4690;52.422;13.486;2022-11-10T00:11:06;101215.13;;;13.14;77.42
9695;BME280;4690;52.422;13.486;2022-11-10T00:13:36;101216.84;;;13.15;77.39
9695;BME280;4690;52.422;13.486;2022-11-10T00:16:22;101224.16;;;13.21;76.99
9695;BME280;4690;52.422;13.486;2022-11-10T00:19:07;101219.44;;;13.10;77.30
9695;BME280;4690;52.422;13.486;2022-11-10T00:21:33;101229.63;;;13.10;77.34
9695;BME280;4690;52.422;13.486;2022-11-10T00:23:58;101229.22;;;13.06;77.40
9695;BME280;4690;52.422;13.486;2022-11-10T00:26:24;101235.78;;;13.05;77.39
9695;BME280;4690;52.422;13.486;2022-11-10T00:28:50;101234.28;;;13.09;76.90
9695;BME280;4690;52.422;13.486;2022-11-10T00:31:15;101233.81;;;13.12;76.85
9695;BME280;4690;52.422;13.486;2022-11-10T00:33:43;101229.56;;;12.98;76.87
9695;BME280;4690;52.422;13.486;2022-11-10T00:36:09;101236.47;;;13.00;76.52
9695;BME280;4690;52.422;13.486;2022-11-10T00:38:35;101235.78;;;13.05;76.09
9695;BME280;4690;52.422;13.486;2022-11-10T00:41:01;101245.44;;;12.96;76.46
9695;BME280;4690;52.422;13.486;2022-11-10T00:43:28;101239.00;;;13.02;76.02
9695;BME280;4690;52.422;13.486;2022-11-10T00:45:55;101243.38;;;13.10;75.57
9695;BME280;4690;52.422;13.486;2022-11-10T00:48:21;101243.44;;;13.03;74.95
9695;BME280;4690;52.422;13.486;2022-11-10T00:50:47;101237.63;;;13.11;75.51
9695;BME280;4690;52.422;13.486;2022-11-10T00:53:12;101245.28;;;13.09;75.14
9695;BME280;4690;52.422;13.486;2022-11-10T00:55:42;101246.34;;;13.27;74.46
9695;BME280;4690;52.422;13.486;2022-11-10T00:58:07;101251.28;;;13.36;74.12
9695;BME280;4690;52.422;13.486;2022-11-10T01:00:33;101253.81;;;13.38;73.76
9695;BME280;4690;52.422;13.486;2022-11-10T01:02:59;101253.34;;;13.41;73.66
9695;BME280;4690;52.422;13.486;2022-11-10T01:05:28;101263.06;;;13.43;73.53
9695;BME280;4690;52.422;13.486;2022-11-10T01:07:54;101267.34;;;13.39;73.51
9695;BME280;4690;52.422;13.486;2022-11-10T01:10:21;101269.88;;;13.41;73.11
9695;BME280;4690;52.422;13.486;2022-11-10T01:12:47;101271.06;;;13.45;72.90
9695;BME280;4690;52.422;13.486;2022-11-10T01:15:12;101268.19;;;13.40;72.67
9695;BME280;4690;52.422;13.486;2022-11-10T01:17:38;101265.09;;;13.48;72.72
9695;BME280;4690;52.422;13.486;2022-11-10T01:20:04;101264.50;;;13.46;72.84
9695;BME280;4690;52.422;13.486;2022-11-10T01:22:33;101273.00;;;13.44;72.62
9695;BME280;4690;52.422;13.486;2022-11-10T01:24:59;101264.25;;;13.48;72.45
9695;BME280;4690;52.422;13.486;2022-11-10T01:27:25;101278.88;;;13.48;72.65
9695;BME280;4690;52.422;13.486;2022-11-10T01:29:50;101271.06;;;13.45;72.50
9695;BME280;4690;52.422;13.486;2022-11-10T01:32:16;101271.31;;;13.43;72.59
9695;BME280;4690;52.422;13.486;2022-11-10T01:34:42;101289.00;;;13.36;72.42
9695;BME280;4690;52.422;13.486;2022-11-10T01:37:08;101276.31;;;13.35;72.76
9695;BME280;4690;52.422;13.486;2022-11-10T01:39:33;101284.56;;;13.35;72.51
9695;BME280;4690;52.422;13.486;2022-11-10T01:41:59;101289.00;;;13.36;72.65
9695;BME280;4690;52.422;13.486;2022-11-10T01:44:25;101284.19;;;13.31;72.61
9695;BME280;4690;52.422;13.486;2022-11-10T01:46:51;101287.91;;;13.18;73.14
9695;BME280;4690;52.422;13.486;2022-11-10T01:49:22;101299.75;;;13.19;73.50
9695;BME280;4690;52.422;13.486;2022-11-10T01:52:09;101299.53;;;13.20;73.64
9695;BME280;4690;52.422;13.486;2022-11-10T01:54:45;101310.25;;;13.29;72.98
9695;BME280;4690;52.422;13.486;2022-11-10T01:57:14;101302.59;;;13.31;73.53
9695;BME280;4690;52.422;13.486;2022-11-10T01:59:47;101303.72;;;13.23;73.59
9695;BME280;4690;52.422;13.486;2022-11-10T02:02:53;101311.84;;;13.18;73.96
9695;BME280;4690;52.422;13.486;2022-11-10T02:05:22;101318.03;;;13.13;74.37
9695;BME280;4690;52.422;13.486;2022-11-10T02:07:50;101321.25;;;13.10;74.57
9695;BME280;4690;52.422;13.486;2022-11-10T02:10:19;101320.94;;;13.18;74.50
9695;BME280;4690;52.422;13.486;2022-11-10T02:12:47;101323.00;;;13.23;74.30
9695;BME280;4690;52.422;13.486;2022-11-10T02:15:16;101332.88;;;13.12;74.67
9695;BME280;4690;52.422;13.486;2022-11-10T02:17:45;101324.22;;;13.09;74.52
9695;BME280;4690;52.422;13.486;2022-11-10T02:20:17;101328.06;;;13.08;74.40
9695;BME280;4690;52.422;13.486;2022-11-10T02:22:43;101321.47;;;13.09;74.82
9695;BME280;4690;52.422;13.486;2022-11-10T02:25:17;101329.66;;;13.15;74.37
9695;BME280;4690;52.422;13.486;2022-11-10T02:27:44;101327.13;;;13.14;74.21
9695;BME280;4690;52.422;13.486;2022-11-10T02:30:10;101330.13;;;13.12;73.95
9695;BME280;4690;52.422;13.486;2022-11-10T02:32:36;101339.22;;;13.13;74.19
9695;BME280;4690;52.422;13.486;2022-11-10T02:35:03;101340.50;;;13.10;73.95
9695;BME280;4690;52.422;13.486;2022-11-10T02:37:29;101344.34;;;13.09;73.88
9695;BME280;4690;52.422;13.486;2022-11-10T02:39:55;101346.22;;;13.09;73.70
9695;BME280;4690;52.422;13.486;2022-11-10T02:42:21;101354.28;;;13.29;73.80
9695;BME280;4690;52.422;13.486;2022-11-10T02:44:47;101350.25;;;13.31;72.52
9695;BME280;4690;52.422;13.486;2022-11-10T02:47:13;101355.06;;;13.36;72.64
9695;BME280;4690;52.422;13.486;2022-11-10T02:49:38;101358.19;;;13.39;72.54
9695;BME280;4690;52.422;13.486;2022-11-10T02:52:04;101355.28;;;13.34;72.48
9695;BME280;4690;52.422;13.486;2022-11-10T02:54:30;101363.16;;;13.31;72.36
9695;BME280;4690;52.422;13.486;2022-11-10T02:56:56;101365.25;;;13.35;72.01
9695;BME280;4690;52.422;13.486;2022-11-10T02:59:21;101365.97;;;13.24;72.52
9695;BME280;4690;52.422;13.486;2022-11-10T03:01:47;101367.13;;;13.16;72.60
9695;BME280;4690;52.422;13.486;2022-11-10T03:04:13;101371.06;;;13.20;72.56
9695;BME280;4690;52.422;13.486;2022-11-10T03:06:39;101373.03;;;13.38;72.05
9695;BME280;4690;52.422;13.486;2022-11-10T03:09:04;101384.22;;;13.43;71.83
9695;BME280;4690;52.422;13.486;2022-11-10T03:11:30;101378.59;;;13.32;72.07
9695;BME280;4690;52.422;13.486;2022-11-10T03:13:56;101389.78;;;13.37;71.50
9695;BME280;4690;52.422;13.486;2022-11-10T03:16:21;101393.75;;;13.41;71.50
9695;BME280;4690;52.422;13.486;2022-11-10T03:18:47;101393.56;;;13.54;70.94
9695;BME280;4690;52.422;13.486;2022-11-10T03:21:13;101401.19;;;13.40;71.29
9695;BME280;4690;52.422;13.486;2022-11-10T03:23:39;101404.16;;;13.39;71.25
9695;BME280;4690;52.422;13.486;2022-11-10T03:26:06;101414.53;;;13.37;71.10
9695;BME280;4690;52.422;13.486;2022-11-10T03:28:33;101419.38;;;13.41;70.94
9695;BME280;4690;52.422;13.486;2022-11-10T03:30:59;101423.63;;;13.37;71.25
9695;BME280;4690;52.422;13.486;2022-11-10T03:33:25;101421.44;;;13.28;71.40
9695;BME280;4690;52.422;13.486;2022-11-10T03:35:51;101424.72;;;13.36;71.04
9695;BME280;4690;52.422;13.486;2022-11-10T03:38:16;101429.50;;;13.22;71.09
9695;BME280;4690;52.422;13.486;2022-11-10T03:40:42;101435.69;;;13.18;71.37
9695;BME280;4690;52.422;13.486;2022-11-10T03:43:10;101436.81;;;13.10;71.46
9695;BME280;4690;52.422;13.486;2022-11-10T03:45:36;101437.22;;;13.14;71.51
9695;BME280;4690;52.422;13.486;2022-11-10T03:48:02;101444.34;;;13.21;71.10
9695;BME280;4690;52.422;13.486;2022-11-10T03:50:28;101436.88;;;13.29;70.55
9695;BME280;4690;52.422;13.486;2022-11-10T03:52:54;101439.44;;;13.23;70.92
9695;BME280;4690;52.422;13.486;2022-11-10T03:55:19;101447.28;;;13.27;70.61
9695;BME280;4690;52.422;13.486;2022-11-10T03:57:45;101444.63;;;13.13;70.58
9695;BME280;4690;52.422;13.486;2022-11-10T04:00:12;101448.47;;;13.12;70.94
9695;BME280;4690;52.422;13.486;2022-11-10T04:02:39;101452.34;;;13.05;70.94
9695;BME280;4690;52.422;13.486;2022-11-10T04:05:06;101447.50;;;13.00;70.67
9695;BME280;4690;52.422;13.486;2022-11-10T04:07:59;101456.47;;;12.89;71.41
9695;BME280;4690;52.422;13.486;2022-11-10T04:10:44;101457.66;;;12.74;71.96
9695;BME280;4690;52.422;13.486;2022-11-10T04:13:10;101454.00;;;12.81;71.86
9695;BME280;4690;52.422;13.486;2022-11-10T04:15:55;101461.50;;;12.73;72.23
9695;BME280;4690;52.422;13.486;2022-11-10T04:18:21;101471.22;;;12.69;72.30
9695;BME280;4690;52.422;13.486;2022-11-10T04:20:55;101470.63;;;12.67;72.32
9695;BME280;4690;52.422;13.486;2022-11-10T04:23:23;101478.19;;;12.72;72.04
9695;BME280;4690;52.422;13.486;2022-11-10T04:28:38;101486.97;;;12.55;73.19
9695;BME280;4690;52.422;13.486;2022-11-10T04:31:05;101488.44;;;12.65;72.69
9695;BME280;4690;52.422;13.486;2022-11-10T04:33:31;101489.72;;;12.62;72.77
9695;BME280;4690;52.422;13.486;2022-11-10T04:35:57;101494.56;;;12.60;72.54
9695;BME280;4690;52.422;13.486;2022-11-10T04:38:22;101498.75;;;12.69;72.38
9695;BME280;4690;52.422;13.486;2022-11-10T04:40:48;101494.13;;;12.63;72.82
9695;BME280;4690;52.422;13.486;2022-11-10T04:43:14;101503.41;;;12.69;72.26
9695;BME280;4690;52.422;13.486;2022-11-10T04:45:39;101504.28;;;12.63;72.74
9695;BME280;4690;52.422;13.486;2022-11-10T04:48:05;101508.31;;;12.60;72.77
9695;BME280;4690;52.422;13.486;2022-11-10T04:50:31;101511.47;;;12.64;72.49
9695;BME280;4690;52.422;13.486;2022-11-10T04:52:57;101511.91;;;12.61;72.61
9695;BME280;4690;52.422;13.486;2022-11-10T04:55:23;101515.78;;;12.53;73.04
9695;BME280;4690;52.422;13.486;2022-11-10T04:57:49;101509.03;;;12.49;73.23
9695;BME280;4690;52.422;13.486;2022-11-10T05:00:15;101509.47;;;12.46;73.51
9695;BME280;4690;52.422;13.486;2022-11-10T05:02:41;101517.09;;;12.44;73.41
9695;BME280;4690;52.422;13.486;2022-11-10T05:05:07;101524.09;;;12.40;73.35
9695;BME280;4690;52.422;13.486;2022-11-10T05:07:33;101526.41;;;12.43;73.34
9695;BME280;4690;52.422;13.486;2022-11-10T05:09:59;101522.59;;;12.44;73.42
9695;BME280;4690;52.422;13.486;2022-11-10T05:12:24;101525.56;;;12.42;73.35
9695;BME280;4690;52.422;13.486;2022-11-10T05:14:50;101532.78;;;12.37;73.40
9695;BME280;4690;52.422;13.486;2022-11-10T05:17:16;101525.38;;;12.37;73.24
9695;BME280;4690;52.422;13.486;2022-11-10T05:19:41;101535.56;;;12.30;73.23
9695;BME280;4690;52.422;13.486;2022-11-10T05:22:07;101538.38;;;12.17;73.84
9695;BME280;4690;52.422;13.486;2022-11-10T05:24:33;101548.34;;;12.11;73.89
9695;BME280;4690;52.422;13.486;2022-11-10T05:26:59;101550.03;;;12.12;73.95
9695;BME280;4690;52.422;13.486;2022-11-10T05:29:24;101554.44;;;12.13;73.87
9695;BME280;4690;52.422;13.486;2022-11-10T05:31:50;101555.31;;;12.07;73.43
9695;BME280;4690;52.422;13.486;2022-11-10T05:34:16;101571.59;;;12.02;73.25
9695;BME280;4690;52.422;13.486;2022-11-10T05:36:41;101569.09;;;11.94;73.56
9695;BME280;4690;52.422;13.486;2022-11-10T05:39:07;101573.09;;;11.84;73.55
9695;BME280;4690;52.422;13.486;2022-11-10T05:41:33;101580.72;;;11.76;73.66
9695;BME280;4690;52.422;13.486;2022-11-10T05:43:58;101588.16;;;11.69;73.78
9695;BME280;4690;52.422;13.486;2022-11-10T05:46:24;101593.84;;;11.60;74.08
9695;BME280;4690;52.422;13.486;2022-11-10T05:48:50;101592.81;;;11.55;74.15
9695;BME280;4690;52.422;13.486;2022-11-10T05:51:16;101609.50;;;11.47;74.54
9695;BME280;4690;52.422;13.486;2022-11-10T05:53:41;101620.44;;;11.40;75.33
9695;BME280;4690;52.422;13.486;2022-11-10T05:56:07;101619.19;;;11.36;75.64
9695;BME280;4690;52.422;13.486;2022-11-10T05:58:33;101623.19;;;11.33;75.33
9695;BME280;4690;52.422;13.486;2022-11-10T06:00:58;101626.78;;;11.27;75.06
9695;BME280;4690;52.422;13.486;2022-11-10T06:03:25;101631.41;;;11.20;75.09
9695;BME280;4690;52.422;13.486;2022-11-10T06:05:50;101639.66;;;11.13;75.03
9695;BME280;4690;52.422;13.486;2022-11-10T06:08:16;101638.78;;;11.06;75.26
9695;BME280;4690;52.422;13.486;2022-11-10T06:10:45;101652.06;;;11.03;75.58
9695;BME280;4690;52.422;13.486;2022-11-10T06:13:11;101663.03;;;10.96;75.45
9695;BME280;4690;52.422;13.486;2022-11-10T06:15:37;101662.16;;;10.89;75.17
9695;BME280;4690;52.422;13.486;2022-11-10T06:18:02;101667.63;;;10.82;75.40
9695;BME280;4690;52.422;13.486;2022-11-10T06:20:28;101671.19;;;10.76;75.76
9695;BME280;4690;52.422;13.486;2022-11-10T06:23:01;101673.69;;;10.71;75.56
9695;BME280;4690;52.422;13.486;2022-11-10T06:25:30;101670.91;;;10.64;75.55
9695;BME280;4690;52.422;13.486;2022-11-10T06:27:57;101678.28;;;10.57;75.62
9695;BME280;4690;52.422;13.486;2022-11-10T06:30:24;101684.38;;;10.52;76.13
9695;BME280;4690;52.422;13.486;2022-11-10T06:32:50;101690.47;;;10.48;76.01
9695;BME280;4690;52.422;13.486;2022-11-10T06:35:15;101700.13;;;10.44;75.87
9695;BME280;4690;52.422;13.486;2022-11-10T06:37:41;101705.84;;;10.42;76.11
9695;BME280;4690;52.422;13.486;2022-11-10T06:40:10;101716.53;;;10.37;76.41
9695;BME280;4690;52.422;13.486;2022-11-10T06:42:37;101722.44;;;10.34;76.04
9695;BME280;4690;52.422;13.486;2022-11-10T06:45:03;101719.88;;;10.32;76.65
9695;BME280;4690;52.422;13.486;2022-11-10T06:47:30;101727.25;;;10.32;76.52
9695;BME280;4690;52.422;13.486;2022-11-10T06:49:56;101733.56;;;10.32;76.67
9695;BME280;4690;52.422;13.486;2022-11-10T06:52:22;101738.22;;;10.32;77.09
9695;BME280;4690;52.422;13.486;2022-11-10T06:54:48;101749.16;;;10.32;77.10
9695;BME280;4690;52.422;13.486;2022-11-10T06:57:14;101751.91;;;10.32;77.06
9695;BME280;4690;52.422;13.486;2022-11-10T06:59:39;101770.03;;;10.33;77.11
9695;BME280;4690;52.422;13.486;2022-11-10T07:02:16;101765.63;;;10.32;77.59
9695;BME280;4690;52.422;13.486;2022-11-10T07:04:42;101770.03;;;10.33;77.77
9695;BME280;4690;52.422;13.486;2022-11-10T07:07:08;101775.97;;;10.37;77.61
9695;BME280;4690;52.422;13.486;2022-11-10T07:09:34;101781.06;;;10.40;77.95
9695;BME280;4690;52.422;13.486;2022-11-10T07:12:00;101792.69;;;10.42;77.68
9695;BME280;4690;52.422;13.486;2022-11-10T07:14:26;101799.84;;;10.43;78.68
9695;BME280;4690;52.422;13.486;2022-11-10T07:16:51;101805.34;;;10.49;78.88
9695;BME280;4690;52.422;13.486;2022-11-10T07:19:17;101808.16;;;10.56;79.11
9695;BME280;4690;52.422;13.486;2022-11-10T07:21:43;101812.03;;;10.68;79.14
9695;BME280;4690;52.422;13.486;2022-11-10T07:24:08;101810.16;;;10.75;79.91
9695;BME280;4690;52.422;13.486;2022-11-10T07:26:34;101811.94;;;10.90;80.50
9695;BME280;4690;52.422;13.486;2022-11-10T07:29:00;101814.78;;;11.10;80.23
9695;BME280;4690;52.422;13.486;2022-11-10T07:31:26;101820.78;;;11.33;79.92
9695;BME280;4690;52.422;13.486;2022-11-10T07:33:51;101821.03;;;11.45;79.21
9695;BME280;4690;52.422;13.486;2022-11-10T07:36:17;101827.34;;;11.45;79.89
9695;BME280;4690;52.422;13.486;2022-11-10T07:38:43;101833.13;;;11.64;79.22
9695;BME280;4690;52.422;13.486;2022-11-10T07:41:09;101830.00;;;11.80;78.59
9695;BME280;4690;52.422;13.486;2022-11-10T07:43:34;101843.78;;;12.07;77.62
9695;BME280;4690;52.422;13.486;2022-11-10T07:46:00;101826.25;;;12.21;76.87
9695;BME280;4690;52.422;13.486;2022-11-10T07:48:26;101842.34;;;12.11;76.85
9695;BME280;4690;52.422;13.486;2022-11-10T07:50:52;101846.13;;;12.23;76.15
9695;BME280;4690;52.422;13.486;2022-11-10T07:53:19;101850.78;;;12.29;75.99
9695;BME280;4690;52.422;13.486;2022-11-10T07:55:45;101852.69;;;12.36;76.04
9695;BME280;4690;52.422;13.486;2022-11-10T07:58:15;101858.59;;;12.32;75.17
9695;BME280;4690;52.422;13.486;2022-11-10T08:00:42;101863.69;;;12.22;75.94
9695;BME280;4690;52.422;13.486;2022-11-10T08:03:16;101867.94;;;12.25;75.87
9695;BME280;4690;52.422;13.486;2022-11-10T08:05:43;101878.94;;;12.45;75.59
9695;BME280;4690;52.422;13.486;2022-11-10T08:08:10;101879.75;;;12.65;74.89
9695;BME280;4690;52.422;13.486;2022-11-10T08:10:37;101875.28;;;12.91;73.44
9695;BME280;4690;52.422;13.486;2022-11-10T08:13:06;101875.69;;;13.01;73.00
9695;BME280;4690;52.422;13.486;2022-11-10T08:15:33;101873.47;;;13.23;71.97
9695;BME280;4690;52.422;13.486;2022-11-10T08:18:21;101882.47;;;12.98;72.45
9695;BME280;4690;52.422;13.486;2022-11-10T08:20:47;101872.44;;;13.17;72.10
9695;BME280;4690;52.422;13.486;2022-11-10T08:23:13;101880.47;;;13.39;71.69
9695;BME280;4690;52.422;13.486;2022-11-10T08:25:40;101889.13;;;13.42;70.83
9695;BME280;4690;52.422;13.486;2022-11-10T08:28:10;101893.16;;;13.47;70.92
9695;BME280;4690;52.422;13.486;2022-11-10T08:30:39;101894.50;;;13.76;69.82
9695;BME280;4690;52.422;13.486;2022-11-10T08:33:08;101888.03;;;13.50;70.62
9695;BME280;4690;52.422;13.486;2022-11-10T08:35:38;101898.09;;;13.11;72.17
9695;BME280;4690;52.422;13.486;2022-11-10T08:38:17;101904.19;;;13.33;71.37
9695;BME280;4690;52.422;13.486;2022-11-10T08:40:44;101907.13;;;13.45;70.71
9695;BME280;4690;52.422;13.486;2022-11-10T08:43:11;101903.28;;;13.53;70.44
9695;BME280;4690;52.422;13.486;2022-11-10T08:45:40;101913.22;;;13.54;70.31
9695;BME280;4690;52.422;13.486;2022-11-10T08:48:10;101924.28;;;13.47;70.50
9695;BME280;4690;52.422;13.486;2022-11-10T08:50:37;101920.88;;;13.52;70.44
9695;BME280;4690;52.422;13.486;2022-11-10T08:53:11;101930.19;;;13.57;70.53
9695;BME280;4690;52.422;13.486;2022-11-10T08:55:37;101942.25;;;13.56;70.18
9695;BME280;4690;52.422;13.486;2022-11-10T08:58:04;101939.94;;;13.53;70.52
9695;BME280;4690;52.422;13.486;2022-11-10T09:00:32;101938.63;;;13.62;70.16
9695;BME280;4690;52.422;13.486;2022-11-10T09:03:16;101945.41;;;13.60;69.65
9695;BME280;4690;52.422;13.486;2022-11-10T09:05:45;101960.03;;;13.54;70.03
9695;BME280;4690;52.422;13.486;2022-11-10T09:08:12;101962.47;;;13.82;69.82
9695;BME280;4690;52.422;13.486;2022-11-10T09:10:45;101966.13;;;13.76;69.61
9695;BME280;4690;52.422;13.486;2022-11-10T09:13:13;101969.41;;;13.98;69.29
9695;BME280;4690;52.422;13.486;2022-11-10T09:15:42;101970.91;;;14.00;69.19
9695;BME280;4690;52.422;13.486;2022-11-10T09:18:11;101977.19;;;14.14;68.56
9695;BME280;4690;52.422;13.486;2022-11-10T09:20:37;101978.56;;;13.92;69.45
9695;BME280;4690;52.422;13.486;2022-11-10T09:23:12;101984.97;;;14.24;69.10
9695;BME280;4690;52.422;13.486;2022-11-10T09:25:39;101986.69;;;14.25;68.04
9695;BME280;4690;52.422;13.486;2022-11-10T09:28:13;101996.56;;;14.39;68.48
9695;BME280;4690;52.422;13.486;2022-11-10T09:30:40;101984.59;;;14.59;67.67
9695;BME280;4690;52.422;13.486;2022-11-10T09:33:06;101980.28;;;14.63;66.87
9695;BME280;4690;52.422;13.486;2022-11-10T09:35:33;101984.63;;;14.45;67.51
9695;BME280;4690;52.422;13.486;2022-11-10T09:37:59;101988.13;;;14.66;67.39
9695;BME280;4690;52.422;13.486;2022-11-10T09:46:41;101994.59;;;14.46;67.79
9695;BME280;4690;52.422;13.486;2022-11-10T09:50:03;101989.91;;;14.53;67.59
9695;BME280;4690;52.422;13.486;2022-11-10T09:52:26;102001.34;;;14.57;67.70
9695;BME280;4690;52.422;13.486;2022-11-10T09:55:28;102005.06;;;14.69;67.33
9695;BME280;4690;52.422;13.486;2022-11-10T09:57:57;102005.78;;;14.58;67.79
9695;BME280;4690;52.422;13.486;2022-11-10T10:00:23;102006.50;;;14.78;66.85
9695;BME280;4690;52.422;13.486;2022-11-10T10:03:00;102003.25;;;14.56;67.36
9695;BME280;4690;52.422;13.486;2022-11-10T10:05:48;101996.56;;;14.71;67.50
9695;BME280;4690;52.422;13.486;2022-11-10T10:11:39;101999.09;;;15.22;65.94
9695;BME280;4690;52.422;13.486;2022-11-10T10:14:41;101998.91;;;14.99;65.83
9695;BME280;4690;52.422;13.486;2022-11-10T10:17:27;102010.38;;;15.21;65.18
9695;BME280;4690;52.422;13.486;2022-11-10T10:23:01;102001.59;;;15.06;65.46
9695;BME280;4690;52.422;13.486;2022-11-10T10:25:31;102001.31;;;14.89;65.94
9695;BME280;4690;52.422;13.486;2022-11-10T10:28:18;102005.59;;;15.10;66.53
9695;BME280;4690;52.422;13.486;2022-11-10T10:30:45;102009.91;;;15.49;65.47
9695;BME280;4690;52.422;13.486;2022-11-10T10:33:20;102008.00;;;15.68;64.38
9695;BME280;4690;52.422;13.486;2022-11-10T10:35:49;102008.06;;;15.43;64.05
9695;BME280;4690;52.422;13.486;2022-11-10T10:40:51;102008.13;;;15.55;63.94
9695;BME280;4690;52.422;13.486;2022-11-10T10:43:18;102004.41;;;15.42;63.93
9695;BME280;4690;52.422;13.486;2022-11-10T10:45:43;102006.50;;;15.47;63.71
9695;BME280;4690;52.422;13.486;2022-11-10T10:48:28;102014.50;;;15.55;63.65
9695;BME280;4690;52.422;13.486;2022-11-10T10:50:54;102015.44;;;16.04;62.54
9695;BME280;4690;52.422;13.486;2022-11-10T10:53:23;102016.25;;;16.23;61.79
9695;BME280;4690;52.422;13.486;2022-11-10T10:56:12;102023.78;;;16.34;60.61
9695;BME280;4690;52.422;13.486;2022-11-10T10:58:57;102015.38;;;16.11;60.73
9695;BME280;4690;52.422;13.486;2022-11-10T11:01:32;102032.69;;;15.44;62.83
9695;BME280;4690;52.422;13.486;2022-11-10T11:04:05;102020.94;;;15.74;62.45
9695;BME280;4690;52.422;13.486;2022-11-10T11:06:58;102029.50;;;15.84;62.42
9695;BME280;4690;52.422;13.486;2022-11-10T11:09:49;102028.41;;;15.67;62.73
9695;BME280;4690;52.422;13.486;2022-11-10T11:12:28;102033.28;;;15.72;62.84
9695;BME280;4690;52.422;13.486;2022-11-10T11:17:57;102018.72;;;16.13;61.69
9695;BME280;4690;52.422;13.486;2022-11-10T11:20:45;102018.09;;;16.29;60.99
9695;BME280;4690;52.422;13.486;2022-11-10T11:27:03;102024.97;;;17.22;57.89
9695;BME280;4690;52.422;13.486;2022-11-10T11:30:00;102027.50;;;17.71;56.56
9695;BME280;4690;52.422;13.486;2022-11-10T11:50:36;102042.28;;;17.06;57.06
9695;BME280;4690;52.422;13.486;2022-11-10T11:59:16;102036.66;;;17.13;56.63
9695;BME280;4690;52.422;13.486;2022-11-10T12:05:10;102036.91;;;17.46;56.54
9695;BME280;4690;52.422;13.486;2022-11-10T12:07:59;102042.91;;;17.20;56.64
9695;BME280;4690;52.422;13.486;2022-11-10T12:11:28;102035.22;;;17.10;56.99
9695;BME280;4690;52.422;13.486;2022-11-10T12:14:19;102047.63;;;17.31;56.45
9695;BME280;4690;52.422;13.486;2022-11-10T12:22:37;102034.91;;;16.58;58.44
9695;BME280;4690;52.422;13.486;2022-11-10T12:25:28;102034.69;;;16.29;59.47
9695;BME280;4690;52.422;13.486;2022-11-10T12:28:14;102046.22;;;16.26;59.66
9695;BME280;4690;52.422;13.486;2022-11-10T12:30:43;102044.84;;;16.17;60.08
9695;BME280;4690;52.422;13.486;2022-11-10T12:36:04;102045.78;;;16.11;60.54
9695;BME280;4690;52.422;13.486;2022-11-10T12:41:54;102055.84;;;16.05;60.65
9695;BME280;4690;52.422;13.486;2022-11-10T12:46:57;102072.78;;;16.27;59.82
9695;BME280;4690;52.422;13.486;2022-11-10T12:49:41;102070.66;;;16.29;59.65
9695;BME280;4690;52.422;13.486;2022-11-10T12:52:30;102072.78;;;16.46;59.21
9695;BME280;4690;52.422;13.486;2022-11-10T12:54:59;102080.50;;;16.55;58.96
9695;BME280;4690;52.422;13.486;2022-11-10T12:57:27;102085.03;;;16.68;58.61
9695;BME280;4690;52.422;13.486;2022-11-10T13:00:05;102092.66;;;16.54;58.81
9695;BME280;4690;52.422;13.486;2022-11-10T13:02:42;102099.19;;;16.11;59.92
9695;BME280;4690;52.422;13.486;2022-11-10T13:08:24;102097.09;;;16.25;59.10
9695;BME280;4690;52.422;13.486;2022-11-10T13:13:53;102099.66;;;16.57;57.91
9695;BME280;4690;52.422;13.486;2022-11-10T13:19:09;102100.31;;;16.71;57.98
9695;BME280;4690;52.422;13.486;2022-11-10T13:27:01;102106.56;;;16.85;56.10
9695;BME280;4690;52.422;13.486;2022-11-10T13:34:37;102112.66;;;16.56;56.68
9695;BME280;4690;52.422;13.486;2022-11-10T13:57:15;102134.22;;;16.36;57.30
9695;BME280;4690;52.422;13.486;2022-11-10T13:59:53;102137.19;;;16.53;57.17
9695;BME280;4690;52.422;13.486;2022-11-10T14:08:17;102137.16;;;16.71;57.13
9695;BME280;4690;52.422;13.486;2022-11-10T14:10:52;102142.56;;;16.48;58.45
9695;BME280;4690;52.422;13.486;2022-11-10T14:13:40;102146.50;;;16.58;58.33
9695;BME280;4690;52.422;13.486;2022-11-10T14:16:22;102153.03;;;16.46;58.12
9695;BME280;4690;52.422;13.486;2022-11-10T14:19:02;102160.66;;;16.50;58.73
9695;BME280;4690;52.422;13.486;2022-11-10T14:21:47;102157.78;;;16.75;58.12
9695;BME280;4690;52.422;13.486;2022-11-10T14:24:29;102158.94;;;16.68;57.93
9695;BME280;4690;52.422;13.486;2022-11-10T14:26:59;102151.41;;;16.38;58.44
9695;BME280;4690;52.422;13.486;2022-11-10T14:29:35;102159.19;;;16.48;58.54
9695;BME280;4690;52.422;13.486;2022-11-10T14:32:21;102173.47;;;16.08;59.31
9695;BME280;4690;52.422;13.486;2022-11-10T14:34:52;102179.66;;;16.03;59.62
9695;BME280;4690;52.422;13.486;2022-11-10T14:37:28;102171.34;;;15.85;60.61
9695;BME280;4690;52.422;13.486;2022-11-10T14:39:58;102179.97;;;15.95;60.53
9695;BME280;4690;52.422;13.486;2022-11-10T14:42:31;102182.63;;;15.83;60.59
9695;BME280;4690;52.422;13.486;2022-11-10T14:45:06;102189.22;;;15.57;61.27
9695;BME280;4690;52.422;13.486;2022-11-10T14:47:32;102184.56;;;15.51;61.61
9695;BME280;4690;52.422;13.486;2022-11-10T14:52:43;102198.16;;;15.53;61.71
9695;BME280;4690;52.422;13.486;2022-11-10T14:55:23;102204.97;;;15.50;61.95
9695;BME280;4690;52.422;13.486;2022-11-10T14:58:25;102216.94;;;15.44;62.32
9695;BME280;4690;52.422;13.486;2022-11-10T15:00:52;102212.00;;;15.14;63.32
9695;BME280;4690;52.422;13.486;2022-11-10T15:03:37;102217.56;;;15.08;63.60
9695;BME280;4690;52.422;13.486;2022-11-10T15:06:10;102224.06;;;15.20;63.11
9695;BME280;4690;52.422;13.486;2022-11-10T15:08:38;102221.94;;;15.22;63.14
9695;BME280;4690;52.422;13.486;2022-11-10T15:11:05;102232.22;;;15.15;63.56
9695;BME280;4690;52.422;13.486;2022-11-10T15:13:35;102232.00;;;15.10;63.69
9695;BME280;4690;52.422;13.486;2022-11-10T15:16:27;102230.72;;;15.12;63.68